Time;durP1;ratioP1;P1;durP2;ratioP2;P2;SDS_P1;SDS_P2;PMS_P1;PMS_P2;Temp;Humidity;BMP_temperature;BMP_pressure;BME280_temperature;BME280_humidity;BME280_pressure;Samples;Min_cycle;Max_cycle;Signal;HPM_P1;HPM_P2
2021/05/14 00:01:55;;;;;;;28.55;22.75;;;;;;;15.95;57.71;100625.53;4972386;28;124121;-66
2021/05/14 00:04:23;;;;;;;26.70;22.45;;;;;;;15.92;57.58;100628.44;4971861;28;114379;-65
2021/05/14 00:06:50;;;;;;;27.75;20.88;;;;;;;15.89;57.67;100623.31;4968079;28;113350;-66
2021/05/14 00:09:18;;;;;;;25.05;21.30;;;;;;;15.86;57.60;100631.53;4969501;28;124946;-64
2021/05/14 00:11:45;;;;;;;25.88;21.05;;;;;;;15.82;57.56;100624.69;4968591;28;124460;-65
2021/05/14 00:14:13;;;;;;;26.20;21.23;;;;;;;15.76;57.56;100632.19;4970388;28;114660;-65
2021/05/14 00:16:41;;;;;;;25.92;21.10;;;;;;;15.72;57.53;100629.81;4970407;28;112969;-65
2021/05/14 00:19:08;;;;;;;29.45;22.83;;;;;;;15.69;57.63;100630.88;4970464;28;123509;-66
2021/05/14 00:21:35;;;;;;;27.90;22.42;;;;;;;15.65;57.83;100634.75;4971414;28;124175;-65
2021/05/14 00:24:03;;;;;;;25.95;21.73;;;;;;;15.59;57.98;100635.13;4970192;28;114950;-65
2021/05/14 00:26:30;;;;;;;27.50;21.13;;;;;;;15.55;57.80;100629.16;4987930;28;114146;-66
2021/05/14 00:28:57;;;;;;;28.00;21.50;;;;;;;15.53;57.92;100640.91;4971404;28;124476;-66
2021/05/14 00:31:24;;;;;;;26.98;20.73;;;;;;;15.49;58.03;100639.41;4971215;28;123886;-66
2021/05/14 00:33:52;;;;;;;25.85;21.20;;;;;;;15.46;58.18;100634.28;4970162;28;113783;-65
2021/05/14 00:36:19;;;;;;;27.67;21.50;;;;;;;15.43;57.95;100645.19;4986502;28;114955;-66
2021/05/14 00:38:46;;;;;;;28.15;22.15;;;;;;;15.38;58.12;100633.00;4971819;28;124647;-65
2021/05/14 00:41:13;;;;;;;28.90;22.02;;;;;;;15.36;58.09;100634.91;4987555;28;123897;-65
2021/05/14 00:43:40;;;;;;;24.92;20.20;;;;;;;15.32;58.02;100638.75;4971307;28;114780;-65
2021/05/14 00:46:07;;;;;;;32.33;23.40;;;;;;;15.28;57.99;100631.91;4969743;28;114030;-65
2021/05/14 00:48:36;;;;;;;31.48;23.35;;;;;;;15.24;58.12;100635.75;4985440;28;124661;-65
2021/05/14 00:51:03;;;;;;;28.40;21.55;;;;;;;15.21;58.12;100635.97;4970024;28;123914;-65
2021/05/14 00:53:32;;;;;;;30.90;23.27;;;;;;;15.17;58.11;100639.81;4986222;28;114729;-65
2021/05/14 00:56:00;;;;;;;31.05;22.98;;;;;;;15.14;57.95;100638.22;4970765;28;114089;-67
2021/05/14 00:58:27;;;;;;;31.17;22.42;;;;;;;15.10;58.12;100627.84;4965284;28;123301;-65
2021/05/14 01:00:54;;;;;;;32.45;23.00;;;;;;;15.07;57.96;100638.69;4984820;28;125162;-66
2021/05/14 01:03:22;;;;;;;32.35;23.98;;;;;;;15.02;57.98;100635.50;4985764;28;114654;-66
2021/05/14 01:05:49;;;;;;;30.58;23.73;;;;;;;14.97;57.91;100631.34;4986577;28;114648;-66
2021/05/14 01:08:16;;;;;;;30.40;23.50;;;;;;;14.93;58.03;100637.81;4970463;28;124902;-66
2021/05/14 01:10:43;;;;;;;30.13;23.25;;;;;;;14.88;57.94;100634.63;4963340;28;123964;-65
2021/05/14 01:13:10;;;;;;;32.20;22.95;;;;;;;14.85;58.00;100629.47;4967125;28;114063;-65
2021/05/14 01:15:37;;;;;;;30.42;22.52;;;;;;;14.81;58.01;100632.47;4970248;28;113872;-66
2021/05/14 01:18:05;;;;;;;30.02;22.58;;;;;;;14.77;57.90;100631.81;4985123;28;124039;-65
2021/05/14 01:20:32;;;;;;;32.80;22.55;;;;;;;14.74;58.06;100637.31;4970712;28;123891;-65
2021/05/14 01:22:59;;;;;;;29.88;22.30;;;;;;;14.70;58.02;100635.81;4970573;28;115146;-65
2021/05/14 01:25:26;;;;;;;28.95;21.90;;;;;;;14.65;57.98;100632.59;4986075;28;114693;-65
2021/05/14 01:27:53;;;;;;;30.33;22.20;;;;;;;14.61;57.97;100634.59;4970314;28;124214;-65
2021/05/14 01:30:21;;;;;;;28.63;20.95;;;;;;;14.57;58.06;100630.44;4969683;28;123937;-66
2021/05/14 01:32:48;;;;;;;29.17;21.00;;;;;;;14.54;58.20;100631.47;4964871;28;113323;-65
2021/05/14 01:35:15;;;;;;;31.98;23.70;;;;;;;14.49;58.00;100628.25;4970992;28;115088;-65
2021/05/14 01:37:42;;;;;;;28.67;22.63;;;;;;;14.46;58.15;100633.75;4969045;28;122260;-66
2021/05/14 01:40:10;;;;;;;31.48;23.00;;;;;;;14.43;58.11;100625.09;4985718;28;123382;-66
2021/05/14 01:42:47;;;;;;;31.83;23.13;;;;;;;14.39;58.14;100627.09;4971078;28;114434;-66
2021/05/14 01:45:14;;;;;;;29.45;22.20;;;;;;;14.36;58.09;100622.84;4971516;28;112040;-65
2021/05/14 01:47:42;;;;;;;30.88;22.80;;;;;;;14.32;58.11;100625.81;4970009;28;123830;-65
2021/05/14 01:50:11;;;;;;;30.02;23.23;;;;;;;14.28;58.07;100618.94;4969580;28;123972;-65
2021/05/14 01:52:38;;;;;;;29.70;22.38;;;;;;;14.25;58.13;100619.16;4969664;28;114198;-65
2021/05/14 01:55:07;;;;;;;31.17;23.33;;;;;;;14.20;58.24;100623.00;4970632;28;114417;-65
2021/05/14 01:57:34;;;;;;;30.15;22.20;;;;;;;14.17;58.35;100617.84;4985398;28;123550;-66
2021/05/14 02:00:07;;;;;;;30.25;22.98;;;;;;;14.14;58.20;100618.03;4985283;28;124362;-66
2021/05/14 02:02:36;;;;;;;31.63;23.13;;;;;;;14.11;58.07;100623.56;4970902;28;113463;-66
2021/05/14 02:05:04;;;;;;;31.15;23.85;;;;;;;14.09;58.35;100625.47;4972565;28;113334;-66
2021/05/14 02:07:31;;;;;;;30.88;23.73;;;;;;;14.05;58.30;100626.59;4966366;28;124485;-66
2021/05/14 02:09:58;;;;;;;31.38;23.73;;;;;;;14.03;58.35;100625.84;4969967;28;123644;-66
2021/05/14 02:12:25;;;;;;;34.35;23.80;;;;;;;13.98;58.40;100618.16;4984832;28;114487;-65
2021/05/14 02:14:52;;;;;;;34.08;24.17;;;;;;;13.94;58.42;100621.13;4970583;28;115302;-65
2021/05/14 02:17:20;;;;;;;34.08;25.00;;;;;;;13.92;58.35;100618.56;4969029;28;124378;-66
2021/05/14 02:19:47;;;;;;;35.50;23.98;;;;;;;13.90;58.51;100617.78;4969924;28;123839;-67
2021/05/14 02:22:14;;;;;;;34.03;24.13;;;;;;;13.87;58.57;100610.00;4970730;28;114132;-66
2021/05/14 02:24:42;;;;;;;34.47;23.30;;;;;;;13.86;58.55;100612.75;4966383;28;113230;-64
2021/05/14 02:27:09;;;;;;;27.80;21.38;;;;;;;13.86;58.50;100623.38;4970543;28;124709;-65
2021/05/14 02:29:37;;;;;;;27.65;20.08;;;;;;;13.85;58.28;100621.69;4970392;28;123686;-65
2021/05/14 02:32:05;;;;;;;25.98;19.20;;;;;;;13.81;58.33;100627.19;4968074;28;114590;-66
2021/05/14 02:34:35;;;;;;;28.73;20.10;;;;;;;13.79;58.29;100626.44;4981466;28;113944;-64
2021/05/14 02:37:03;;;;;;;30.83;20.67;;;;;;;13.77;58.41;100624.84;4968809;28;124379;-65
2021/05/14 02:39:30;;;;;;;30.38;22.08;;;;;;;13.73;58.25;100629.50;4969893;28;124556;-67
2021/05/14 02:41:58;;;;;;;31.88;22.92;;;;;;;13.70;58.40;100629.66;4986244;28;114350;-65
2021/05/14 02:44:26;;;;;;;34.45;24.50;;;;;;;13.66;58.42;100633.47;4970136;28;114089;-66
2021/05/14 02:46:53;;;;;;;34.55;24.77;;;;;;;13.65;58.44;100631.75;4970271;28;123878;-66
2021/05/14 02:49:20;;;;;;;32.65;24.08;;;;;;;13.61;58.47;100635.56;4968915;28;124569;-66
2021/05/14 02:51:48;;;;;;;32.65;24.05;;;;;;;13.58;58.28;100630.41;4986352;28;113261;-66
2021/05/14 02:54:15;;;;;;;34.58;23.58;;;;;;;13.55;58.54;100630.63;4970045;28;113817;-66
2021/05/14 02:56:42;;;;;;;37.92;25.25;;;;;;;13.50;58.49;100627.38;4983919;28;122896;-66
2021/05/14 02:59:09;;;;;;;34.90;24.02;;;;;;;13.49;58.69;100631.00;4982017;28;123544;-66
2021/05/14 03:01:36;;;;;;;33.47;24.27;;;;;;;13.44;58.50;100621.47;4968182;28;115476;-66
2021/05/14 03:04:04;;;;;;;31.85;24.02;;;;;;;13.42;58.54;100626.03;4985029;28;114414;-66
2021/05/14 03:06:32;;;;;;;35.90;25.00;;;;;;;13.39;58.62;100623.56;4968638;28;124065;-66
2021/05/14 03:08:59;;;;;;;35.90;25.10;;;;;;;13.37;58.53;100625.47;4984091;28;123053;-65
2021/05/14 03:11:26;;;;;;;38.65;26.70;;;;;;;13.34;58.71;100622.97;4983609;28;115310;-65
2021/05/14 03:13:53;;;;;;;40.80;26.73;;;;;;;13.31;58.65;100623.16;4969506;28;114029;-65
2021/05/14 03:16:21;;;;;;;39.15;27.08;;;;;;;13.28;58.79;100618.00;4967550;28;124626;-65
2021/05/14 03:18:49;;;;;;;38.67;27.00;;;;;;;13.27;58.80;100621.59;4972317;28;124323;-65
2021/05/14 03:21:16;;;;;;;39.15;26.40;;;;;;;13.25;58.79;100623.50;4973740;28;114234;-65
2021/05/14 03:23:43;;;;;;;40.70;26.85;;;;;;;13.24;58.91;100629.75;4987868;28;113996;-65
2021/05/14 03:26:10;;;;;;;40.97;27.10;;;;;;;13.22;58.88;100618.34;4972881;28;123873;-65
2021/05/14 03:28:37;;;;;;;36.67;25.48;;;;;;;13.18;58.84;100627.47;4974561;28;123650;-65
2021/05/14 03:31:04;;;;;;;38.20;25.15;;;;;;;13.18;59.04;100627.47;4970989;28;113768;-65
2021/05/14 03:33:31;;;;;;;34.42;23.80;;;;;;;13.17;59.08;100625.75;4972169;28;113693;-66
2021/05/14 03:35:59;;;;;;;33.10;24.23;;;;;;;13.17;58.98;100625.75;4986816;28;123298;-65
2021/05/14 03:38:33;;;;;;;32.22;21.15;;;;;;;13.15;58.75;100627.66;4967714;28;123746;-65
2021/05/14 03:41:04;;;;;;;24.97;18.13;;;;;;;13.13;58.50;100629.53;4985768;28;114508;-65
2021/05/14 03:43:31;;;;;;;24.17;18.27;;;;;;;13.11;58.54;100636.75;4967892;28;114414;-65
2021/05/14 03:45:58;;;;;;;26.65;18.63;;;;;;;13.07;58.73;100635.22;4986553;28;123155;-66
2021/05/14 03:48:26;;;;;;;26.67;19.15;;;;;;;13.03;58.87;100634.53;4967198;28;123250;-65
2021/05/14 03:50:53;;;;;;;29.15;21.02;;;;;;;13.00;58.71;100629.44;4970467;28;114558;-65
2021/05/14 03:53:21;;;;;;;32.38;22.92;;;;;;;12.96;58.69;100634.06;4971850;28;114963;-65
2021/05/14 03:55:50;;;;;;;30.98;21.98;;;;;;;12.95;59.01;100632.34;4987117;28;124689;-64
2021/05/14 03:58:17;;;;;;;33.65;22.50;;;;;;;12.93;58.91;100631.56;4971310;28;123013;-65
2021/05/14 04:00:45;;;;;;;31.55;22.13;;;;;;;12.91;59.03;100625.50;4972210;28;114490;-66
2021/05/14 04:03:15;;;;;;;32.35;22.52;;;;;;;12.89;59.06;100627.38;4970753;28;113254;-65
2021/05/14 04:05:42;;;;;;;31.52;22.23;;;;;;;12.87;59.00;100631.94;4986886;28;124310;-65
2021/05/14 04:08:10;;;;;;;31.80;21.48;;;;;;;12.86;58.87;100627.56;4986865;28;122962;-65
2021/05/14 04:16:08;;;;;;;30.52;21.20;;;;;;;12.82;59.02;100631.34;4971565;28;124215;-65
2021/05/14 04:18:38;;;;;;;33.40;22.40;;;;;;;12.80;59.01;100633.22;4986718;28;123521;-65
2021/05/14 04:21:06;;;;;;;31.08;21.73;;;;;;;12.80;58.99;100630.56;4972322;28;113287;-65
2021/05/14 04:23:33;;;;;;;29.92;20.38;;;;;;;12.80;59.12;100634.06;4988315;28;113756;-65
2021/05/14 04:26:01;;;;;;;27.58;20.23;;;;;;;12.80;59.07;100633.22;4987354;28;123783;-65
2021/05/14 04:28:29;;;;;;;29.83;19.63;;;;;;;12.79;59.02;100636.81;4971858;28;124001;-65
2021/05/14 04:30:56;;;;;;;28.33;20.55;;;;;;;12.80;59.09;100638.53;4971688;28;114330;-65
2021/05/14 04:33:23;;;;;;;29.23;19.83;;;;;;;12.81;59.28;100637.63;4977138;28;114047;-65
2021/05/14 04:35:50;;;;;;;27.35;19.55;;;;;;;12.82;59.41;100639.31;4976550;28;124922;-65
2021/05/14 04:38:17;;;;;;;29.83;18.92;;;;;;;12.83;59.36;100638.38;4972243;28;123247;-66
2021/05/14 04:40:45;;;;;;;30.77;20.08;;;;;;;12.84;59.47;100634.75;4971078;28;115359;-65
2021/05/14 04:43:12;;;;;;;29.98;20.13;;;;;;;12.85;59.55;100636.50;4971164;28;115669;-65
2021/05/14 04:45:39;;;;;;;31.13;20.48;;;;;;;12.87;59.58;100639.06;4986309;28;123017;-65
2021/05/14 04:48:09;;;;;;;26.85;19.05;;;;;;;12.89;59.63;100643.31;4985980;28;123190;-65
2021/05/14 04:50:38;;;;;;;29.02;21.10;;;;;;;12.93;59.91;100644.84;4970268;28;114302;-65
2021/05/14 04:53:08;;;;;;;32.60;22.63;;;;;;;12.95;59.96;100647.44;4969985;28;114390;-65
2021/05/14 04:55:36;;;;;;;35.92;22.92;;;;;;;12.98;59.99;100637.47;4971401;28;124131;-65
2021/05/14 04:58:03;;;;;;;39.50;26.20;;;;;;;13.01;60.20;100642.59;4966178;28;122978;-65
2021/05/14 05:00:31;;;;;;;39.00;25.48;;;;;;;13.05;60.25;100644.16;4969806;28;114134;-65
2021/05/14 05:03:00;;;;;;;40.03;26.15;;;;;;;13.10;60.14;100645.69;4974320;28;114879;-65
2021/05/14 05:05:27;;;;;;;45.53;28.88;;;;;;;13.15;60.51;100649.78;4969458;28;124618;-65
2021/05/14 05:07:54;;;;;;;50.10;30.45;;;;;;;13.20;60.80;100642.41;4966933;28;123352;-65
2021/05/14 05:10:21;;;;;;;49.42;30.88;;;;;;;13.26;60.75;100641.19;4992654;22;113372;-65
2021/05/14 05:12:49;;;;;;;54.10;31.63;;;;;;;13.31;60.95;100649.75;4988849;28;111110;-69
2021/05/14 05:15:17;;;;;;;52.45;31.88;;;;;;;13.38;60.97;100650.25;4988613;28;123967;-68
2021/05/14 05:17:44;;;;;;;50.38;30.65;;;;;;;13.43;61.03;100649.03;4989505;28;122675;-67
2021/05/14 05:20:12;;;;;;;52.03;31.25;;;;;;;13.51;61.24;100655.69;4992167;28;114014;-67
2021/05/14 05:22:39;;;;;;;49.45;31.00;;;;;;;13.56;61.06;100653.59;4992841;28;113952;-67
2021/05/14 05:25:07;;;;;;;50.30;31.38;;;;;;;13.63;61.14;100653.13;4989042;28;126979;-67
2021/05/14 05:27:34;;;;;;;55.33;32.65;;;;;;;13.71;61.25;100654.47;4990808;28;124039;-70
2021/05/14 05:30:02;;;;;;;50.83;31.25;;;;;;;13.78;61.51;100659.31;4990593;28;115983;-70
2021/05/14 05:32:30;;;;;;;51.60;30.08;;;;;;;13.87;61.31;100657.06;4985436;28;115330;-68
2021/05/14 05:34:57;;;;;;;54.50;31.50;;;;;;;13.93;61.29;100654.00;4990325;28;123917;-69
2021/05/14 05:37:24;;;;;;;50.35;31.40;;;;;;;14.00;61.31;100655.34;4990346;28;124786;-69
2021/05/14 05:39:52;;;;;;;47.28;30.42;;;;;;;14.08;61.31;100655.72;4990005;28;114328;-69
2021/05/14 05:42:19;;;;;;;48.22;29.63;;;;;;;14.14;61.34;100660.63;4990696;28;114469;-70
2021/05/14 05:44:46;;;;;;;47.65;30.20;;;;;;;14.21;61.34;100671.78;4987665;28;124067;-69
2021/05/14 05:47:13;;;;;;;50.63;31.27;;;;;;;14.27;61.30;100665.22;4990714;28;124828;-69
2021/05/14 05:49:40;;;;;;;49.00;30.25;;;;;;;14.34;61.29;100674.53;4988695;28;114546;-69
2021/05/14 05:52:08;;;;;;;47.97;30.35;;;;;;;14.40;61.20;100668.81;4985513;28;113832;-69
2021/05/14 05:54:35;;;;;;;47.47;30.20;;;;;;;14.48;61.19;100674.47;4986332;28;124039;-68
2021/05/14 05:57:02;;;;;;;47.85;30.13;;;;;;;14.53;61.21;100675.06;4989154;28;124348;-69
2021/05/14 05:59:29;;;;;;;49.42;30.25;;;;;;;14.57;61.11;100673.94;4987305;28;114610;-69
2021/05/14 06:01:56;;;;;;;45.05;29.90;;;;;;;14.62;61.25;100672.78;4990492;28;114164;-69
2021/05/14 06:04:25;;;;;;;51.20;30.85;;;;;;;14.67;61.17;100668.84;4988620;28;124159;-68
2021/05/14 06:06:52;;;;;;;49.10;31.42;;;;;;;14.73;60.77;100672.94;4986317;28;123998;-68
2021/05/14 06:09:19;;;;;;;48.78;30.95;;;;;;;14.79;61.12;100672.56;4988322;28;114121;-69
2021/05/14 06:11:46;;;;;;;45.90;30.02;;;;;;;14.85;60.97;100677.47;4987773;28;114660;-68
2021/05/14 06:14:14;;;;;;;50.10;31.08;;;;;;;14.92;60.97;100678.78;4989415;28;123827;-69
2021/05/14 06:16:41;;;;;;;49.60;31.75;;;;;;;14.98;61.06;100666.84;4988025;28;124660;-68
2021/05/14 06:19:24;;;;;;;47.75;31.65;;;;;;;15.06;61.21;100674.34;4986635;28;115988;-69
2021/05/14 06:21:51;;;;;;;51.67;32.90;;;;;;;15.13;61.00;100672.97;5003585;28;114286;-70
2021/05/14 06:24:19;;;;;;;54.53;33.20;;;;;;;15.21;61.06;100683.13;4990015;28;124667;-69
2021/05/14 06:26:47;;;;;;;55.63;33.72;;;;;;;15.27;61.03;100682.72;4990550;28;124693;-68
2021/05/14 06:29:15;;;;;;;55.55;34.80;;;;;;;15.36;61.14;100688.28;4989435;28;114414;-68
2021/05/14 06:31:42;;;;;;;53.13;33.80;;;;;;;15.45;61.01;100685.97;5004432;28;114473;-69
2021/05/14 06:34:10;;;;;;;54.38;34.15;;;;;;;15.55;61.19;100692.38;4986677;28;124309;-68
2021/05/14 06:36:37;;;;;;;52.58;34.35;;;;;;;15.64;60.91;100686.41;4973033;28;122940;-69
2021/05/14 06:39:04;;;;;;;53.17;34.22;;;;;;;15.75;60.59;100689.22;4989031;28;113306;-69
2021/05/14 06:41:31;;;;;;;51.88;34.33;;;;;;;15.83;60.54;100690.50;4990898;28;113902;-68
2021/05/14 06:43:59;;;;;;;51.83;34.25;;;;;;;15.93;60.71;100696.91;4988668;28;123213;-69
2021/05/14 06:46:26;;;;;;;50.90;33.53;;;;;;;16.04;60.73;100693.50;4987586;28;123909;-69
2021/05/14 06:48:54;;;;;;;52.88;33.10;;;;;;;16.12;60.60;100692.00;4988919;28;114300;-70
2021/05/14 06:51:21;;;;;;;48.55;33.67;;;;;;;16.22;60.58;100688.66;4988369;28;114451;-69
2021/05/14 06:53:50;;;;;;;49.80;33.60;;;;;;;16.32;60.18;100687.03;4992958;28;123100;-69
2021/05/14 06:56:17;;;;;;;50.67;34.28;;;;;;;16.44;60.55;100691.50;4991857;28;125939;-69
2021/05/14 06:58:44;;;;;;;51.67;32.45;;;;;;;16.54;60.12;100692.56;4993001;28;114098;-69
2021/05/14 07:01:14;;;;;;;49.47;33.40;;;;;;;16.64;59.90;100691.88;4992119;28;114135;-69
2021/05/14 07:03:42;;;;;;;46.10;32.03;;;;;;;16.73;60.02;100699.22;4974146;28;126285;-69
2021/05/14 07:06:11;;;;;;;48.63;32.17;;;;;;;16.84;59.94;100699.34;4990980;28;123560;-69
2021/05/14 07:08:38;;;;;;;49.75;32.05;;;;;;;16.95;59.50;100697.66;5006672;28;115248;-69
2021/05/14 07:11:05;;;;;;;47.28;32.72;;;;;;;17.05;59.29;100701.38;4991551;28;115384;-69
2021/05/14 07:13:33;;;;;;;45.50;31.23;;;;;;;17.15;59.01;100702.38;4990163;28;123862;-69
2021/05/14 07:16:00;;;;;;;49.97;31.45;;;;;;;17.24;59.22;100701.69;4991821;28;123974;-70
2021/05/14 07:18:27;;;;;;;44.45;30.73;;;;;;;17.34;58.98;100701.00;4990722;28;114598;-69
2021/05/14 07:20:55;;;;;;;44.78;29.77;;;;;;;17.44;58.85;100697.53;4990690;28;112964;-69
2021/05/14 07:23:22;;;;;;;38.83;27.83;;;;;;;17.57;58.24;100702.78;4992110;28;124090;-69
2021/05/14 07:25:49;;;;;;;39.28;29.08;;;;;;;17.68;58.21;100694.75;4987822;28;123968;-69
2021/05/14 07:28:20;;;;;;;38.05;28.48;;;;;;;17.79;58.08;100695.78;4990644;28;114704;-69
2021/05/14 07:30:47;;;;;;;38.78;28.52;;;;;;;17.92;57.95;100709.09;4992676;28;113893;-69
2021/05/14 07:33:15;;;;;;;38.22;26.27;;;;;;;18.03;57.69;100699.25;4988266;28;124665;-67
2021/05/14 07:35:42;;;;;;;36.95;26.45;;;;;;;18.15;56.89;100712.66;4992060;28;122133;-68
2021/05/14 07:38:10;;;;;;;36.97;22.95;;;;;;;18.22;56.61;100708.50;4993143;28;114901;-65
2021/05/14 07:40:39;;;;;;;24.83;19.15;;;;;;;18.29;56.05;100704.38;4982856;28;113956;-68
2021/05/14 07:43:06;;;;;;;29.13;21.33;;;;;;;18.36;55.75;100704.72;4987001;28;125979;-67
2021/05/14 07:45:33;;;;;;;31.77;22.02;;;;;;;18.41;55.00;100698.00;5002097;28;123543;-68
2021/05/14 07:48:06;;;;;;;31.13;21.92;;;;;;;18.46;55.29;100703.88;4986803;28;114241;-69
2021/05/14 07:50:33;;;;;;;28.42;21.35;;;;;;;18.56;55.50;100700.44;4987171;28;113214;-68
2021/05/14 07:53:04;;;;;;;28.30;21.23;;;;;;;18.64;55.08;100708.69;4986727;28;124197;-68
2021/05/14 07:55:31;;;;;;;27.63;20.02;;;;;;;18.72;54.93;100708.91;5006606;28;124125;-68
2021/05/14 07:57:59;;;;;;;26.10;19.90;;;;;;;18.80;54.60;100711.88;4993465;28;115437;-68
2021/05/14 08:00:26;;;;;;;27.52;19.58;;;;;;;18.83;53.50;100711.59;4993940;28;115133;-68
2021/05/14 08:02:53;;;;;;;22.58;17.30;;;;;;;18.85;53.86;100715.06;4990756;28;124097;-68
2021/05/14 08:05:20;;;;;;;21.10;16.40;;;;;;;18.90;53.51;100719.19;4990187;28;123807;-68
2021/05/14 08:08:13;;;;;;;19.30;15.02;;;;;;;18.92;53.25;100711.84;4990240;28;114621;-68
2021/05/14 08:10:42;;;;;;;18.20;13.65;;;;;;;18.95;52.43;100711.59;4986942;28;114293;-68
2021/05/14 08:13:23;;;;;;;21.23;16.05;;;;;;;18.94;52.55;100715.25;4988700;28;124100;-68
2021/05/14 08:15:50;;;;;;;22.25;16.73;;;;;;;18.96;52.52;100719.50;4985236;28;124117;-68
2021/05/14 08:18:18;;;;;;;21.80;16.08;;;;;;;19.02;52.44;100718.16;4990912;28;114082;-68
2021/05/14 08:20:46;;;;;;;22.95;16.25;;;;;;;19.05;52.33;100712.53;4990179;28;114473;-68
2021/05/14 08:23:19;;;;;;;18.88;15.85;;;;;;;19.10;51.94;100714.84;4991449;28;124289;-68
2021/05/14 08:25:48;;;;;;;23.33;16.35;;;;;;;19.17;51.51;100722.25;4992815;28;123997;-68
2021/05/14 08:28:16;;;;;;;21.52;16.88;;;;;;;19.23;51.58;100711.00;4993368;28;114558;-68
2021/05/14 08:30:45;;;;;;;24.75;16.58;;;;;;;19.31;51.23;100718.44;4991499;28;114797;-68
2021/05/14 08:33:12;;;;;;;19.90;15.52;;;;;;;19.39;51.14;100721.31;4991757;28;123169;-68
2021/05/14 08:35:41;;;;;;;20.48;15.98;;;;;;;19.47;51.22;100715.28;4989676;28;124813;-68
2021/05/14 08:38:10;;;;;;;21.40;14.77;;;;;;;19.57;51.25;100713.53;4970995;28;113573;-68
2021/05/14 08:40:38;;;;;;;23.15;16.50;;;;;;;19.66;51.26;100714.56;4986749;28;114246;-68
2021/05/14 08:43:08;;;;;;;21.05;14.23;;;;;;;19.77;50.60;100724.44;4990171;28;123975;-68
2021/05/14 08:45:35;;;;;;;19.17;14.27;;;;;;;19.84;50.06;100720.25;4991339;28;124422;-68
2021/05/14 08:48:05;;;;;;;16.50;14.13;;;;;;;19.90;50.27;100719.72;4989171;28;115342;-69
2021/05/14 08:50:32;;;;;;;19.20;14.35;;;;;;;20.00;49.88;100715.25;4992158;28;114107;-68
2021/05/14 08:52:59;;;;;;;17.27;13.85;;;;;;;20.08;49.59;100716.41;4991985;28;124107;-69
2021/05/14 08:55:29;;;;;;;15.70;12.57;;;;;;;20.07;49.20;100714.72;4989303;28;123743;-68
2021/05/14 08:57:56;;;;;;;15.95;12.60;;;;;;;20.06;48.67;100723.75;4992399;28;114595;-69
2021/05/14 09:00:24;;;;;;;18.00;13.65;;;;;;;20.09;48.55;100718.97;4990852;28;114403;-68
2021/05/14 09:02:52;;;;;;;19.02;13.57;;;;;;;20.17;48.36;100726.34;4987664;28;124194;-69
2021/05/14 09:05:20;;;;;;;16.75;13.65;;;;;;;20.24;48.54;100722.13;4990077;28;124171;-68
2021/05/14 09:07:47;;;;;;;16.80;13.32;;;;;;;20.29;48.27;100730.66;4992208;28;114489;-68
2021/05/14 09:10:16;;;;;;;18.23;13.57;;;;;;;20.33;47.79;100724.03;4986646;28;114361;-68
2021/05/14 09:12:44;;;;;;;16.88;13.38;;;;;;;20.32;46.83;100719.63;4985332;28;124701;-68
2021/05/14 09:15:25;;;;;;;16.90;13.25;;;;;;;20.30;47.41;100721.59;4990780;28;124601;-68
2021/05/14 09:18:06;;;;;;;17.85;14.35;;;;;;;20.33;47.30;100724.03;4991987;28;114122;-68
2021/05/14 09:20:46;;;;;;;16.77;13.70;;;;;;;20.39;47.41;100726.16;4976221;28;114423;-68
2021/05/14 09:23:16;;;;;;;16.00;13.32;;;;;;;20.42;47.27;100720.53;4991819;28;123063;-69
2021/05/14 09:26:13;;;;;;;15.75;12.88;;;;;;;20.45;46.78;100729.31;4991078;28;123198;-68
2021/05/14 09:28:47;;;;;;;16.88;12.85;;;;;;;20.48;46.74;100723.66;4988254;28;114320;-68
2021/05/14 09:31:18;;;;;;;15.90;12.93;;;;;;;20.54;46.89;100723.09;4990267;28;113876;-69
2021/05/14 09:33:48;;;;;;;16.45;11.60;;;;;;;20.65;46.75;100720.34;4991032;28;123299;-69
2021/05/14 09:36:23;;;;;;;15.65;13.07;;;;;;;20.72;46.07;100721.50;4989520;28;122831;-69
2021/05/14 09:38:58;;;;;;;19.15;13.45;;;;;;;20.73;45.77;100723.19;4986899;28;115369;-69
2021/05/14 09:41:31;;;;;;;17.27;13.07;;;;;;;20.70;45.31;100723.47;4990801;28;115604;-67
2021/05/14 09:44:19;;;;;;;17.08;13.27;;;;;;;20.66;45.47;100716.66;4989963;28;124321;-68
2021/05/14 09:46:51;;;;;;;17.05;14.25;;;;;;;20.66;46.08;100716.66;4978373;28;124314;-68
2021/05/14 09:49:21;;;;;;;17.40;14.57;;;;;;;20.71;46.09;100714.41;4989466;28;114259;-68
2021/05/14 09:52:04;;;;;;;15.73;13.38;;;;;;;20.71;45.72;100719.78;4989922;28;114159;-68
2021/05/14 09:54:40;;;;;;;19.95;15.95;;;;;;;20.68;45.63;100720.09;4989372;28;124571;-68
2021/05/14 10:00:04;;;;;;;18.77;13.95;;;;;;;20.62;45.83;100723.28;4989370;28;114681;-68
2021/05/14 10:02:37;;;;;;;18.98;14.50;;;;;;;20.65;45.79;100724.88;4990768;28;114419;-68
2021/05/14 10:05:14;;;;;;;19.27;14.98;;;;;;;20.71;46.48;100722.47;4990244;28;124938;-68
2021/05/14 10:07:42;;;;;;;19.88;14.82;;;;;;;20.78;46.16;100720.94;4990075;28;123831;-68
2021/05/14 10:10:11;;;;;;;14.70;12.57;;;;;;;20.83;45.47;100722.34;4992257;28;114476;-67
2021/05/14 10:12:39;;;;;;;14.82;11.60;;;;;;;20.87;45.05;100726.47;4993012;28;113947;-68
2021/05/14 10:15:11;;;;;;;14.68;11.40;;;;;;;20.92;44.38;100726.91;4989826;28;123908;-69
2021/05/14 10:17:40;;;;;;;14.02;11.27;;;;;;;20.95;44.58;100726.66;4990853;28;124361;-68
2021/05/14 10:20:19;;;;;;;17.27;14.40;;;;;;;21.00;44.95;100721.66;4991681;28;113239;-69
2021/05/14 10:22:50;;;;;;;17.55;13.95;;;;;;;21.07;44.24;100714.75;4991246;28;113066;-69
2021/05/14 10:25:44;;;;;;;17.35;14.20;;;;;;;21.11;45.23;100710.75;4988932;28;124729;-68
2021/05/14 10:28:18;;;;;;;16.42;13.02;;;;;;;21.18;44.89;100706.53;4987871;28;124071;-68
2021/05/14 10:31:02;;;;;;;17.25;12.82;;;;;;;21.22;44.53;100706.25;4989933;28;115554;-68
2021/05/14 10:33:48;;;;;;;15.90;12.53;;;;;;;21.24;43.89;100705.09;4989932;28;115476;-68
2021/05/14 10:36:21;;;;;;;14.77;12.07;;;;;;;21.26;43.83;100707.66;4989470;28;124175;-68
2021/05/14 10:39:08;;;;;;;19.15;12.52;;;;;;;21.26;43.38;100704.97;4988460;28;124363;-68
2021/05/14 10:41:54;;;;;;;17.00;14.77;;;;;;;21.29;44.06;100710.09;4992149;28;114113;-68
2021/05/14 10:44:53;;;;;;;17.75;14.77;;;;;;;21.27;43.80;100709.38;4989158;28;113754;-68
2021/05/14 10:47:20;;;;;;;17.83;15.05;;;;;;;21.19;43.53;100702.84;4990566;28;124034;-68
2021/05/14 10:50:02;;;;;;;18.75;14.43;;;;;;;21.10;43.12;100703.69;4991752;28;124035;-67
2021/05/14 10:52:32;;;;;;;19.73;16.15;;;;;;;20.96;43.08;100706.78;4989603;28;114091;-68
2021/05/14 10:54:59;;;;;;;21.30;17.75;;;;;;;20.79;43.55;100706.50;4989942;28;113117;-68
2021/05/14 10:57:39;;;;;;;23.80;18.48;;;;;;;20.64;44.20;100710.56;4989323;28;124134;-68
2021/05/14 11:00:27;;;;;;;21.75;17.55;;;;;;;20.54;44.31;100707.81;4991043;28;124785;-67
2021/05/14 11:03:09;;;;;;;18.55;16.48;;;;;;;20.54;44.88;100706.97;4989402;28;114119;-68
2021/05/14 11:05:42;;;;;;;19.20;16.60;;;;;;;20.63;45.11;100706.19;4982204;28;114037;-68
2021/05/14 11:08:11;;;;;;;17.50;15.27;;;;;;;20.73;45.29;100712.41;4988176;28;124092;-68
2021/05/14 11:10:40;;;;;;;20.42;17.90;;;;;;;20.89;45.23;100702.94;4989661;28;123731;-68
2021/05/14 11:13:40;;;;;;;21.75;18.52;;;;;;;21.06;45.55;100707.66;4989800;23;114543;-64
2021/05/14 11:16:38;;;;;;;20.17;17.13;;;;;;;21.19;45.37;100702.84;4954921;28;113041;-65
2021/05/14 11:19:30;;;;;;;18.92;16.85;;;;;;;21.28;44.93;100702.97;4984695;28;124493;-65
2021/05/14 11:22:05;;;;;;;18.45;16.15;;;;;;;21.35;44.38;100696.03;4984766;28;124191;-65